Time;durP1;ratioP1;P1;durP2;ratioP2;P2;SDS_P1;SDS_P2;PMS_P1;PMS_P2;Temp;Humidity;BMP_temperature;BMP_pressure;BME280_temperature;BME280_humidity;BME280_pressure;Samples;Min_cycle;Max_cycle;Signal;HPM_P1;HPM_P2
2022/11/09 00:01:01;;;;;;;4.63;2.10;;;;;;;12.65;100.00;100239.47;10535684;28;20052;-64
2022/11/09 00:06:02;;;;;;;7.53;2.58;;;;;;;12.59;100.00;100235.44;10535689;28;20048;-66
2022/11/09 00:11:08;;;;;;;4.93;2.75;;;;;;;12.78;100.00;100231.72;10535510;28;20063;-63
2022/11/09 00:16:13;;;;;;;5.40;2.67;;;;;;;12.77;100.00;100231.81;10533117;28;20040;-63
2022/11/09 00:21:18;;;;;;;6.15;2.65;;;;;;;12.77;100.00;100232.66;10535469;28;20567;-65
2022/11/09 00:26:22;;;;;;;5.72;2.80;;;;;;;12.90;100.00;100232.72;10535250;28;20090;-66
2022/11/09 00:31:24;;;;;;;7.57;2.78;;;;;;;12.95;100.00;100235.06;10535610;28;20056;-64
2022/11/09 00:36:29;;;;;;;7.18;2.50;;;;;;;12.90;100.00;100239.75;10539971;28;20047;-65
2022/11/09 00:41:32;;;;;;;7.38;3.05;;;;;;;12.92;100.00;100228.25;10542946;28;20067;-63
2022/11/09 00:46:33;;;;;;;8.32;2.70;;;;;;;12.85;100.00;100224.31;10539569;28;20408;-65
2022/11/09 00:51:35;;;;;;;5.30;2.08;;;;;;;12.95;100.00;100225.44;10541862;28;20070;-65
2022/11/09 00:56:39;;;;;;;8.52;3.42;;;;;;;12.88;100.00;100222.38;10541653;28;20113;-64
2022/11/09 01:01:41;;;;;;;7.00;2.60;;;;;;;12.88;100.00;100213.66;10541249;28;20520;-65
2022/11/09 01:06:43;;;;;;;4.72;2.35;;;;;;;12.98;100.00;100214.78;10541733;28;20090;-66
2022/11/09 01:11:46;;;;;;;6.43;2.20;;;;;;;13.05;100.00;100230.94;10541027;28;20561;-65
2022/11/09 01:16:47;;;;;;;4.82;1.95;;;;;;;13.01;100.00;100237.31;10538142;28;20466;-64
2022/11/09 01:21:49;;;;;;;5.70;1.88;;;;;;;12.97;100.00;100254.16;10540930;28;20092;-64
2022/11/09 01:26:52;;;;;;;7.30;2.00;;;;;;;12.94;100.00;100251.72;10540383;28;20109;-66
2022/11/09 01:31:54;;;;;;;8.18;2.45;;;;;;;12.86;100.00;100246.94;10540440;28;20144;-64
2022/11/09 01:36:58;;;;;;;4.05;2.00;;;;;;;12.75;100.00;100247.59;10539843;28;20044;-66
2022/11/09 01:42:01;;;;;;;4.32;1.95;;;;;;;12.67;100.00;100247.22;10539947;28;20082;-65
2022/11/09 01:47:11;;;;;;;5.25;2.15;;;;;;;12.62;100.00;100256.22;10537403;28;20082;-63
2022/11/09 01:52:20;;;;;;;6.75;2.15;;;;;;;12.62;100.00;100253.59;10539875;28;20105;-64
2022/11/09 01:57:30;;;;;;;3.80;1.77;;;;;;;12.66;100.00;100241.16;10539369;28;20100;-64
2022/11/09 02:02:31;;;;;;;4.00;2.13;;;;;;;12.60;100.00;100237.13;10538747;28;20462;-65
2022/11/09 02:07:35;;;;;;;3.83;2.10;;;;;;;12.47;100.00;100257.13;10538551;28;20055;-65
2022/11/09 02:12:38;;;;;;;8.20;2.63;;;;;;;12.41;100.00;100249.63;10536531;28;20105;-65
2022/11/09 02:17:43;;;;;;;6.43;1.92;;;;;;;12.35;100.00;100254.31;10538774;28;20093;-66
2022/11/09 02:22:46;;;;;;;5.20;2.10;;;;;;;12.31;100.00;100247.56;10538195;28;20051;-64
2022/11/09 02:27:50;;;;;;;4.72;1.95;;;;;;;12.38;100.00;100262.94;10537714;28;20047;-67
2022/11/09 02:32:51;;;;;;;5.97;2.15;;;;;;;12.40;100.00;100271.50;10538239;28;20135;-65
2022/11/09 02:37:54;;;;;;;9.45;2.00;;;;;;;12.49;100.00;100274.41;10537865;28;20047;-64
2022/11/09 02:42:57;;;;;;;5.82;1.85;;;;;;;12.54;100.00;100258.44;10534687;28;20054;-64
2022/11/09 02:48:00;;;;;;;8.85;2.08;;;;;;;12.61;100.00;100248.44;10537297;28;20062;-65
2022/11/09 02:53:04;;;;;;;7.53;2.30;;;;;;;12.65;100.00;100243.84;10537003;28;20141;-63
2022/11/09 02:58:05;;;;;;;5.18;2.05;;;;;;;12.64;99.74;100236.94;10536674;28;20044;-63
2022/11/09 03:03:07;;;;;;;8.82;2.28;;;;;;;12.64;99.91;100229.09;10536598;28;20121;-64
2022/11/09 03:08:12;;;;;;;7.85;2.20;;;;;;;12.65;100.00;100229.00;10537068;28;20563;-65
2022/11/09 03:13:13;;;;;;;8.38;2.13;;;;;;;12.54;100.00;100247.13;10535070;28;20093;-64
2022/11/09 03:18:15;;;;;;;9.50;2.42;;;;;;;12.42;100.00;100274.88;10536467;28;20080;-67
2022/11/09 03:23:18;;;;;;;9.95;2.63;;;;;;;12.39;100.00;100285.53;10536123;28;20393;-69
2022/11/09 03:28:20;;;;;;;8.82;2.00;;;;;;;12.33;100.00;100289.34;10536317;28;20109;-64
2022/11/09 03:33:21;;;;;;;9.73;2.22;;;;;;;12.22;100.00;100297.84;10535916;28;20461;-63
2022/11/09 03:38:24;;;;;;;7.05;2.38;;;;;;;12.16;100.00;100292.94;10535943;28;20096;-64
2022/11/09 03:43:26;;;;;;;8.18;2.10;;;;;;;12.10;100.00;100308.06;10533742;28;20105;-64
2022/11/09 03:48:29;;;;;;;10.18;2.38;;;;;;;12.10;100.00;100307.22;10535638;28;20048;-65
2022/11/09 03:53:32;;;;;;;6.82;1.85;;;;;;;12.12;100.00;100314.97;10535895;28;20098;-65
2022/11/09 03:58:35;;;;;;;7.40;2.40;;;;;;;12.10;100.00;100322.91;10536154;28;20044;-75
2022/11/09 04:03:37;;;;;;;6.78;1.95;;;;;;;12.05;100.00;100320.53;10535732;28;20582;-74
2022/11/09 04:08:41;;;;;;;;;;;;;;;12.02;100.00;100325.09;10536929;28;20093;-77
2022/11/09 04:13:43;;;;;;;7.95;2.60;;;;;;;12.01;100.00;100328.66;10541043;28;19942;-79
2022/11/09 04:18:45;;;;;;;11.23;2.05;;;;;;;11.89;100.00;100340.63;10543328;28;20541;-74
2022/11/09 04:23:49;;;;;;;11.00;2.30;;;;;;;11.84;100.00;100344.34;10543538;28;20514;-77
2022/11/09 04:28:51;;;;;;;8.05;2.35;;;;;;;11.75;100.00;100344.88;10543532;28;20066;-74
2022/11/09 04:33:52;;;;;;;12.32;2.40;;;;;;;11.70;100.00;100363.41;10543316;28;20080;-74
2022/11/09 04:38:55;;;;;;;7.43;2.50;;;;;;;11.83;100.00;100363.59;10542449;28;20047;-75
2022/11/09 04:43:57;;;;;;;12.98;2.67;;;;;;;11.88;100.00;100365.09;10540853;28;20060;-76
2022/11/09 04:48:59;;;;;;;9.13;2.30;;;;;;;11.89;100.00;100369.38;10542226;28;20070;-73
2022/11/09 04:54:02;;;;;;;6.28;2.03;;;;;;;11.90;100.00;100376.31;10542520;28;20048;-79
2022/11/09 04:59:03;;;;;;;7.20;2.55;;;;;;;11.84;100.00;100377.50;10542224;28;20127;-73
2022/11/09 05:04:05;;;;;;;9.27;2.10;;;;;;;11.69;100.00;100366.97;10541461;28;20119;-75
2022/11/09 05:09:08;;;;;;;11.88;2.30;;;;;;;11.56;100.00;100358.94;10541686;28;20052;-66
2022/11/09 05:14:10;;;;;;;10.27;2.55;;;;;;;11.49;100.00;100370.66;10538556;28;20070;-65
2022/11/09 05:19:11;;;;;;;11.95;2.30;;;;;;;11.43;100.00;100360.53;10540917;28;20078;-66
2022/11/09 05:24:14;;;;;;;12.15;2.50;;;;;;;11.33;100.00;100350.56;10540601;28;20415;-64
2022/11/09 05:29:16;;;;;;;7.13;2.50;;;;;;;11.25;100.00;100362.38;10540628;28;20055;-67
2022/11/09 05:34:18;;;;;;;7.10;2.13;;;;;;;11.14;100.00;100355.09;10540574;28;20070;-65
2022/11/09 05:39:21;;;;;;;9.00;2.20;;;;;;;11.27;100.00;100360.50;10540563;28;20048;-63
2022/11/09 05:44:22;;;;;;;11.23;2.47;;;;;;;11.25;100.00;100351.94;10537692;28;20048;-66
2022/11/09 05:49:24;;;;;;;11.20;2.33;;;;;;;11.17;100.00;100360.16;10540291;28;20055;-63
2022/11/09 05:54:27;;;;;;;9.68;2.40;;;;;;;11.23;100.00;100369.44;10539705;28;20105;-67
2022/11/09 05:59:29;;;;;;;10.18;2.35;;;;;;;11.20;100.00;100355.59;10538748;28;20117;-65
2022/11/09 06:04:30;;;;;;;9.70;2.05;;;;;;;11.20;100.00;100360.00;10538983;28;20070;-64
2022/11/09 06:09:33;;;;;;;8.43;2.28;;;;;;;11.18;100.00;100362.69;10539046;28;20552;-67
2022/11/09 06:14:35;;;;;;;6.95;1.88;;;;;;;11.13;100.00;100369.06;10535840;28;20068;-67
2022/11/09 06:19:38;;;;;;;12.82;2.50;;;;;;;11.09;100.00;100378.84;10537653;28;20070;-64
2022/11/09 06:24:41;;;;;;;8.60;1.90;;;;;;;11.11;100.00;100373.50;10537809;28;20058;-75
2022/11/09 06:29:42;;;;;;;10.20;2.63;;;;;;;10.98;100.00;100382.00;10537989;28;20051;-74
2022/11/09 06:34:47;;;;;;;6.65;2.33;;;;;;;10.96;100.00;100383.84;10537168;28;20549;-73
2022/11/09 06:39:50;;;;;;;10.02;2.20;;;;;;;10.94;100.00;100385.69;10537649;28;20135;-72
2022/11/09 06:44:52;;;;;;;9.38;2.45;;;;;;;10.89;100.00;100398.13;10535217;28;20048;-72
2022/11/09 06:49:55;;;;;;;8.65;2.47;;;;;;;10.93;100.00;100389.22;10537101;28;20048;-74
2022/11/09 06:54:58;;;;;;;11.10;2.45;;;;;;;10.91;100.00;100396.28;10537473;28;20458;-74
2022/11/09 07:00:00;;;;;;;6.88;2.58;;;;;;;10.89;100.00;100404.22;10537841;28;20051;-72
2022/11/09 07:05:02;;;;;;;10.38;2.25;;;;;;;10.88;100.00;100407.72;10537325;28;20048;-76
2022/11/09 07:10:07;;;;;;;12.23;2.50;;;;;;;10.80;100.00;100405.50;10536949;28;20110;-74
2022/11/09 07:15:11;;;;;;;9.98;2.40;;;;;;;10.78;100.00;100423.00;10534510;28;20055;-72
2022/11/09 07:20:13;;;;;;;12.50;2.55;;;;;;;10.90;100.00;100425.94;10536345;28;20040;-72
2022/11/09 07:25:17;;;;;;;6.70;2.20;;;;;;;10.89;100.00;100435.53;10536652;28;20065;-75
2022/11/09 07:30:19;;;;;;;12.35;2.60;;;;;;;10.87;100.00;100431.28;10535979;28;20172;-73
2022/11/09 07:35:21;;;;;;;10.32;2.50;;;;;;;10.93;100.00;100444.06;10522820;28;20094;-76
2022/11/09 07:40:24;;;;;;;10.98;2.60;;;;;;;10.98;100.00;100433.38;10523140;28;20044;-72
2022/11/09 07:45:26;;;;;;;6.57;2.38;;;;;;;11.15;100.00;100435.97;10539212;28;20073;-74
2022/11/09 07:50:30;;;;;;;9.52;2.50;;;;;;;11.21;100.00;100437.41;10544532;28;20615;-72
2022/11/09 07:55:34;;;;;;;6.63;2.08;;;;;;;11.32;100.00;100426.41;10505558;28;20048;-74
2022/11/09 08:00:38;;;;;;;9.43;2.22;;;;;;;11.30;100.00;100439.53;10533204;28;20052;-75
2022/11/09 08:05:40;;;;;;;8.60;2.22;;;;;;;11.37;100.00;100444.47;10544087;28;20048;-76
2022/11/09 08:10:50;;;;;;;5.30;2.40;;;;;;;11.38;100.00;100451.38;10543979;28;20563;-76
2022/11/09 08:15:51;;;;;;;7.40;2.55;;;;;;;11.56;100.00;100444.31;10542088;28;20494;-76
2022/11/09 08:20:55;;;;;;;6.20;2.42;;;;;;;11.66;100.00;100460.34;10543227;28;20423;-78
2022/11/09 08:26:03;;;;;;;4.05;1.90;;;;;;;11.62;100.00;100469.28;10543684;28;20117;-75
2022/11/09 08:31:08;;;;;;;7.97;2.28;;;;;;;11.64;100.00;100472.69;10542794;28;20090;-72
2022/11/09 08:36:11;;;;;;;8.75;2.03;;;;;;;11.98;100.00;100478.72;10530144;28;20063;-73
2022/11/09 08:41:16;;;;;;;8.73;2.60;;;;;;;12.17;100.00;100488.19;10500642;28;20080;-78
2022/11/09 08:46:17;;;;;;;4.75;1.98;;;;;;;12.04;100.00;100483.59;10498596;28;20045;-72
2022/11/09 08:51:20;;;;;;;7.40;2.08;;;;;;;12.54;100.00;100487.91;10506491;28;20040;-72
2022/11/09 08:56:23;;;;;;;10.10;2.10;;;;;;;13.19;100.00;100483.34;10541512;28;20089;-76
2022/11/09 09:01:26;;;;;;;6.72;2.20;;;;;;;12.99;100.00;100482.75;10542337;28;20097;-73
2022/11/09 09:06:28;;;;;;;7.82;2.28;;;;;;;13.57;99.05;100482.88;10542271;28;20051;-76
2022/11/09 09:11:31;;;;;;;7.88;2.47;;;;;;;13.32;98.63;100484.31;10541554;28;20507;-73
2022/11/09 09:16:33;;;;;;;7.70;2.17;;;;;;;13.21;99.08;100492.81;10538666;28;20495;-71
2022/11/09 09:21:34;;;;;;;;;;;;;;;13.73;95.12;100492.41;10540785;28;20074;-72
2022/11/09 09:26:38;;;;;;;10.07;2.40;;;;;;;13.03;97.83;100489.50;10540972;28;19920;-67
2022/11/09 09:31:41;;;;;;;6.90;2.00;;;;;;;12.71;99.27;100500.06;10504621;28;20067;-68
2022/11/09 09:36:43;;;;;;;7.35;2.13;;;;;;;13.25;98.29;100503.97;10505494;28;20456;-65
2022/11/09 09:41:54;;;;;;;4.68;1.92;;;;;;;14.07;92.49;100506.06;10533047;28;20052;-66
2022/11/09 09:47:07;;;;;;;7.55;2.15;;;;;;;13.48;93.48;100499.13;10537952;28;20048;-65
2022/11/09 09:52:22;;;;;;;10.20;2.13;;;;;;;13.66;93.57;100507.69;10540210;28;20062;-70
2022/11/09 09:57:29;;;;;;;8.40;2.35;;;;;;;13.93;93.70;100524.44;10539743;28;20051;-73
2022/11/09 10:02:36;;;;;;;6.47;2.10;;;;;;;14.45;89.87;100536.06;10539315;28;20060;-73
2022/11/09 10:07:48;;;;;;;10.07;2.45;;;;;;;14.73;89.47;100534.28;10536392;28;20043;-73
2022/11/09 10:13:26;;;;;;;8.45;2.42;;;;;;;14.60;85.73;100544.72;10536232;28;20056;-71
2022/11/09 10:18:47;;;;;;;9.90;2.20;;;;;;;14.23;88.36;100544.47;10533734;28;20044;-75
2022/11/09 10:24:07;;;;;;;6.50;1.93;;;;;;;14.36;88.11;100536.63;10512149;28;20060;-73
2022/11/09 10:29:23;;;;;;;9.20;2.65;;;;;;;13.98;88.51;100540.72;10538050;28;20048;-65
2022/11/09 10:34:30;;;;;;;9.73;2.33;;;;;;;15.10;86.81;100538.94;10537868;28;20072;-64
2022/11/09 10:39:42;;;;;;;11.40;1.92;;;;;;;14.31;86.61;100544.81;10538256;28;20074;-69
2022/11/09 10:44:47;;;;;;;8.48;2.20;;;;;;;13.88;88.23;100549.16;10535278;28;20048;-65
2022/11/09 10:50:15;;;;;;;11.10;2.30;;;;;;;13.65;88.84;100561.88;10537115;28;20059;-65
2022/11/09 10:55:24;;;;;;;7.00;1.75;;;;;;;13.62;88.34;100569.13;10537069;28;20340;-64
2022/11/09 11:00:28;;;;;;;3.85;1.70;;;;;;;13.53;88.60;100570.50;10537452;28;20198;-66
2022/11/09 11:05:34;;;;;;;10.05;2.47;;;;;;;13.52;87.61;100579.31;10531522;28;20051;-64
2022/11/09 11:10:36;;;;;;;8.23;1.92;;;;;;;13.54;89.14;100572.16;10536074;28;20048;-64
2022/11/09 11:15:42;;;;;;;5.20;2.42;;;;;;;13.68;87.80;100570.53;10530329;28;20067;-67
2022/11/09 11:20:44;;;;;;;9.30;1.88;;;;;;;13.43;89.63;100574.56;10533359;28;20483;-64
2022/11/09 11:26:12;;;;;;;7.88;2.17;;;;;;;13.19;89.76;100578.53;10534245;28;20561;-67
2022/11/09 11:31:18;;;;;;;8.52;2.00;;;;;;;13.17;89.93;100577.75;10533828;28;20056;-65
2022/11/09 11:36:36;;;;;;;7.32;2.47;;;;;;;12.99;89.40;100587.50;10534423;28;20048;-66
2022/11/09 11:42:07;;;;;;;11.07;2.38;;;;;;;12.90;91.34;100595.91;10533926;28;20094;-66
2022/11/09 11:47:24;;;;;;;10.23;2.58;;;;;;;12.94;91.34;100586.94;10531605;28;20060;-74
2022/11/09 11:52:44;;;;;;;9.25;2.15;;;;;;;13.38;89.76;100578.28;10534863;28;20116;-64
2022/11/09 11:58:10;;;;;;;9.27;1.92;;;;;;;14.31;84.49;100576.31;10535149;28;20097;-64
2022/11/09 12:03:39;;;;;;;3.85;1.60;;;;;;;14.41;80.82;100582.66;10535777;28;20056;-75
2022/11/09 12:09:02;;;;;;;3.50;1.73;;;;;;;14.57;79.31;100571.19;10536062;28;20051;-75
2022/11/09 12:14:22;;;;;;;9.20;1.92;;;;;;;14.60;79.01;100580.66;10533589;28;20052;-74
2022/11/09 12:20:16;;;;;;;5.85;2.00;;;;;;;14.20;81.44;100584.00;10535725;28;20048;-76
2022/11/09 12:25:27;;;;;;;6.05;1.92;;;;;;;13.75;83.92;100584.94;10528809;28;20420;-78
2022/11/09 12:30:48;;;;;;;6.72;1.88;;;;;;;13.89;83.50;100577.06;10537152;28;20074;-72
2022/11/09 12:35:59;;;;;;;9.82;1.73;;;;;;;13.79;85.90;100583.81;10542729;28;20497;-71
2022/11/09 12:41:08;;;;;;;8.15;2.28;;;;;;;13.94;82.68;100591.69;10542743;28;20048;-69
2022/11/09 12:46:13;;;;;;;5.53;1.60;;;;;;;13.81;83.45;100589.81;10540596;28;20062;-77
2022/11/09 12:51:17;;;;;;;5.85;2.08;;;;;;;14.22;84.33;100603.13;10542350;28;20044;-71
2022/11/09 12:56:27;;;;;;;6.90;1.83;;;;;;;14.51;81.18;100598.66;10542042;28;20097;-74
2022/11/09 13:01:50;;;;;;;8.35;1.80;;;;;;;14.91;78.10;100610.22;10542161;28;20564;-76
2022/11/09 13:07:29;;;;;;;6.45;1.60;;;;;;;15.14;76.06;100607.91;10541955;28;20097;-75
2022/11/09 13:12:37;;;;;;;6.22;1.80;;;;;;;14.34;78.77;100602.34;10539260;28;20276;-75
2022/11/09 13:18:05;;;;;;;8.25;1.70;;;;;;;14.02;82.04;100620.94;10541392;28;20412;-76
2022/11/09 13:23:32;;;;;;;7.07;1.88;;;;;;;13.93;82.03;100626.75;10541512;28;20074;-70
2022/11/09 13:29:10;;;;;;;4.32;1.48;;;;;;;14.10;82.51;100623.09;10540936;28;20495;-76
2022/11/09 13:34:43;;;;;;;10.40;2.20;;;;;;;13.95;81.33;100632.72;10539166;28;20092;-76
2022/11/09 13:39:46;;;;;;;4.78;1.92;;;;;;;14.12;81.81;100636.94;10540448;28;20052;-79
2022/11/09 13:44:48;;;;;;;4.20;1.92;;;;;;;13.54;84.85;100637.72;10537224;28;20462;-73
2022/11/09 13:49:50;;;;;;;;;;;;;;;13.20;86.79;100647.47;10541009;28;20054;-72
2022/11/09 13:54:54;;;;;;;5.13;1.77;;;;;;;13.04;88.05;100653.59;10539865;28;19920;-77
2022/11/09 14:00:00;;;;;;;6.80;2.10;;;;;;;13.05;88.17;100652.66;10539738;28;20074;-73
2022/11/09 14:05:01;;;;;;;8.95;1.75;;;;;;;13.17;87.24;100652.91;10539591;28;20050;-73
2022/11/09 14:10:21;;;;;;;3.55;1.48;;;;;;;13.08;85.90;100649.88;10539166;28;20044;-73
2022/11/09 14:15:39;;;;;;;5.30;1.35;;;;;;;12.98;86.56;100651.31;10536835;28;20075;-75
2022/11/09 14:20:51;;;;;;;5.22;1.70;;;;;;;13.03;87.39;100657.13;10538156;28;20079;-72
2022/11/09 14:25:55;;;;;;;6.55;1.90;;;;;;;12.88;87.72;100688.50;10538441;28;20086;-74
2022/11/09 14:30:57;;;;;;;5.55;1.70;;;;;;;12.77;88.25;100709.19;10538172;28;20052;-76
2022/11/09 14:36:01;;;;;;;2.30;1.45;;;;;;;12.66;89.25;100696.66;10538512;28;20492;-75
2022/11/09 14:41:19;;;;;;;6.07;1.38;;;;;;;12.46;90.87;100705.59;10538134;28;20072;-76
2022/11/09 14:46:25;;;;;;;3.30;1.40;;;;;;;12.45;91.49;100724.81;10535210;28;20087;-73
2022/11/09 14:51:35;;;;;;;3.67;1.50;;;;;;;12.50;91.66;100707.13;10538054;28;20048;-75
2022/11/09 14:56:41;;;;;;;6.63;1.85;;;;;;;12.47;92.83;100717.75;10536888;28;20047;-70
2022/11/09 15:01:58;;;;;;;7.30;1.80;;;;;;;12.45;93.09;100722.19;10537526;28;20097;-73
2022/11/09 15:07:04;;;;;;;5.88;1.88;;;;;;;12.39;94.06;100733.00;10537366;28;20052;-74
2022/11/09 15:12:14;;;;;;;6.72;1.90;;;;;;;12.31;94.88;100736.84;10537524;28;20051;-72
2022/11/09 15:17:22;;;;;;;5.85;1.92;;;;;;;12.21;95.63;100738.25;10535675;28;20051;-70
2022/11/09 15:22:49;;;;;;;6.68;2.13;;;;;;;12.09;96.59;100751.03;10537333;28;20492;-74
2022/11/09 15:28:17;;;;;;;7.75;1.90;;;;;;;11.94;97.74;100743.94;10537233;28;20058;-74
2022/11/09 15:33:24;;;;;;;6.97;2.40;;;;;;;11.83;98.40;100745.31;10536183;28;20113;-75
2022/11/09 15:38:38;;;;;;;9.13;1.90;;;;;;;11.78;99.04;100752.53;10536073;28;20404;-79
2022/11/09 15:43:42;;;;;;;7.35;2.22;;;;;;;11.77;99.34;100748.22;10533966;28;20048;-76
2022/11/09 15:48:44;;;;;;;8.38;2.40;;;;;;;11.75;99.43;100763.13;10536365;28;20480;-74
2022/11/09 15:53:45;;;;;;;;;;;;;;;11.72;100.00;100776.34;10536634;28;20075;-76
2022/11/09 15:58:51;;;;;;;8.97;2.37;;;;;;;11.73;100.00;100785.88;10535402;28;20394;-71
2022/11/09 16:03:52;;;;;;;10.23;2.20;;;;;;;11.72;100.00;100792.03;10537286;28;20555;-72
2022/11/09 16:08:54;;;;;;;9.35;2.67;;;;;;;11.62;100.00;100794.25;10543975;28;20048;-75
2022/11/09 16:14:00;;;;;;;5.15;2.13;;;;;;;11.57;100.00;100804.91;10542222;28;20480;-76
2022/11/09 16:19:02;;;;;;;6.43;2.80;;;;;;;11.42;100.00;100818.69;10543200;28;20048;-72
2022/11/09 16:24:05;;;;;;;9.68;2.55;;;;;;;11.30;100.00;100812.28;10541826;28;20552;-71
2022/11/09 16:29:08;;;;;;;9.52;2.30;;;;;;;11.21;100.00;100826.59;10542175;28;20048;-73
2022/11/09 16:34:09;;;;;;;7.75;2.60;;;;;;;11.12;100.00;100829.63;10542391;28;20063;-72
2022/11/09 16:39:15;;;;;;;9.30;3.30;;;;;;;11.17;100.00;100840.72;10541296;28;20109;-75
2022/11/09 16:44:22;;;;;;;7.47;2.58;;;;;;;11.14;100.00;100854.78;10538989;28;20044;-74
2022/11/09 16:49:23;;;;;;;7.35;2.65;;;;;;;11.14;100.00;100865.22;10540796;28;20098;-73
2022/11/09 16:54:26;;;;;;;6.45;2.05;;;;;;;11.08;100.00;100873.31;10541692;28;20052;-75
2022/11/09 16:59:29;;;;;;;10.20;2.50;;;;;;;11.02;100.00;100879.66;10538475;28;20072;-77
2022/11/09 17:04:31;;;;;;;8.45;2.15;;;;;;;10.96;100.00;100895.59;10539136;28;20427;-75
2022/11/09 17:09:33;;;;;;;8.02;3.33;;;;;;;10.89;100.00;100904.63;10539876;28;20047;-71
2022/11/09 17:14:36;;;;;;;9.48;2.40;;;;;;;10.86;100.00;100923.00;10537352;28;20396;-76
2022/11/09 17:19:39;;;;;;;7.97;2.38;;;;;;;10.71;100.00;100927.94;10538302;28;20424;-71
2022/11/09 17:24:41;;;;;;;7.65;2.38;;;;;;;10.61;100.00;100944.91;10539834;28;20135;-72
2022/11/09 17:29:44;;;;;;;10.55;2.40;;;;;;;10.50;100.00;100951.41;10538234;28;20068;-74
2022/11/09 17:34:46;;;;;;;7.38;2.33;;;;;;;10.52;100.00;100965.25;10538963;28;20054;-73
2022/11/09 17:39:47;;;;;;;10.13;2.38;;;;;;;10.51;100.00;100967.94;10538616;28;20075;-71
2022/11/09 17:44:50;;;;;;;7.18;2.22;;;;;;;10.47;100.00;100977.63;10535779;28;20116;-73
2022/11/09 17:49:52;;;;;;;7.18;2.60;;;;;;;10.43;100.00;100982.09;10538368;28;20044;-71
2022/11/09 17:54:54;;;;;;;7.07;2.72;;;;;;;10.44;100.00;100988.19;10537759;28;20516;-72
2022/11/09 17:59:58;;;;;;;7.15;2.17;;;;;;;10.38;100.00;100991.00;10537893;28;20128;-72
2022/11/09 18:05:01;;;;;;;9.02;2.42;;;;;;;10.20;100.00;101006.47;10536724;28;20048;-71
2022/11/09 18:10:05;;;;;;;13.55;3.63;;;;;;;10.15;100.00;101003.19;10536678;28;20128;-70
2022/11/09 18:15:09;;;;;;;7.70;2.65;;;;;;;10.10;100.00;101015.56;10535565;28;20302;-70
2022/11/09 18:20:11;;;;;;;9.55;2.90;;;;;;;10.05;100.00;101013.97;10535558;28;20447;-72
2022/11/09 18:25:14;;;;;;;7.65;2.67;;;;;;;10.13;100.00;101031.91;10518415;28;20040;-73
2022/11/09 18:30:17;;;;;;;8.77;2.90;;;;;;;10.09;100.00;101032.13;10534825;28;20487;-72
2022/11/09 18:35:20;;;;;;;7.25;2.80;;;;;;;10.07;100.00;101026.09;10531894;28;20524;-70
2022/11/09 18:40:21;;;;;;;8.05;3.15;;;;;;;9.90;100.00;101027.56;10515471;28;20458;-72
2022/11/09 18:45:24;;;;;;;11.23;3.35;;;;;;;9.87;100.00;101051.13;10533917;28;20048;-71
2022/11/09 18:50:26;;;;;;;8.30;2.83;;;;;;;9.73;100.00;101059.44;10535973;28;20480;-72
2022/11/09 18:55:28;;;;;;;10.80;2.83;;;;;;;9.67;100.00;101065.72;10517847;28;20470;-73
2022/11/09 19:00:31;;;;;;;5.55;2.85;;;;;;;9.73;100.00;101064.66;10493748;28;20114;-73
2022/11/09 19:05:35;;;;;;;8.77;3.10;;;;;;;9.65;100.00;101062.34;10494005;28;20052;-74
2022/11/09 19:10:37;;;;;;;8.23;3.15;;;;;;;9.64;100.00;101071.03;10526268;28;20056;-70
2022/11/09 19:15:45;;;;;;;10.02;2.95;;;;;;;9.75;100.00;101081.13;10532968;28;20510;-72
2022/11/09 19:20:47;;;;;;;7.38;3.22;;;;;;;9.70;100.00;101078.66;10535401;28;20040;-73
2022/11/09 19:25:49;;;;;;;8.02;2.90;;;;;;;9.68;100.00;101082.22;10535324;28;20128;-72
2022/11/09 19:30:52;;;;;;;6.70;3.05;;;;;;;9.59;100.00;101093.81;10534854;28;20458;-71
2022/11/09 19:35:55;;;;;;;10.32;3.30;;;;;;;9.51;100.00;101097.53;10534798;28;20502;-74
2022/11/09 19:40:57;;;;;;;9.43;3.10;;;;;;;9.56;100.00;101101.72;10543456;28;20055;-75
2022/11/09 19:46:03;;;;;;;8.63;3.60;;;;;;;9.53;100.00;101113.09;10543774;28;20510;-73
2022/11/09 19:51:05;;;;;;;12.98;3.75;;;;;;;9.44;100.00;101129.91;10548197;28;20052;-73
2022/11/09 19:56:10;;;;;;;5.53;2.42;;;;;;;9.43;100.00;101137.75;10547192;28;20506;-72
2022/11/09 20:01:13;;;;;;;8.32;3.10;;;;;;;9.42;100.00;101144.75;10547613;28;20109;-72
2022/11/09 20:06:17;;;;;;;8.70;3.20;;;;;;;9.42;100.00;101155.16;10547047;28;20641;-72
2022/11/09 20:16:46;;;;;;;10.93;3.00;;;;;;;9.46;100.00;101177.59;10544528;28;20066;-75
2022/11/09 20:21:48;;;;;;;7.07;2.97;;;;;;;9.41;100.00;101179.47;10547667;28;20150;-73
2022/11/09 20:26:51;;;;;;;7.43;2.80;;;;;;;9.36;100.00;101191.81;10547542;28;20132;-72
2022/11/09 20:31:54;;;;;;;9.30;3.00;;;;;;;9.39;100.00;101199.53;10547466;28;20461;-73
2022/11/09 20:36:56;;;;;;;12.93;4.65;;;;;;;9.30;100.00;101218.06;10548153;28;20528;-71
2022/11/09 20:41:57;;;;;;;12.23;3.95;;;;;;;9.25;100.00;101221.66;10547387;28;20048;-77
2022/11/09 20:47:00;;;;;;;11.45;2.90;;;;;;;9.24;100.00;101230.34;10544770;28;20523;-75
2022/11/09 20:52:03;;;;;;;8.07;3.00;;;;;;;9.21;100.00;101227.84;10543554;28;20086;-74
2022/11/09 20:57:04;;;;;;;5.82;2.53;;;;;;;9.36;100.00;101233.50;10540777;28;20142;-68
2022/11/09 21:02:13;;;;;;;8.90;2.80;;;;;;;9.35;100.00;101239.59;10540129;28;20480;-72
2022/11/09 21:07:16;;;;;;;11.95;2.88;;;;;;;9.37;100.00;101240.41;10540365;28;20503;-71
2022/11/09 21:12:21;;;;;;;10.02;3.22;;;;;;;9.33;100.00;101250.06;10540141;28;20109;-73
2022/11/09 21:17:24;;;;;;;10.38;3.22;;;;;;;9.38;100.00;101253.38;10538123;28;20055;-70
2022/11/09 21:29:48;;;;;;;9.23;2.90;;;;;;;9.37;100.00;101256.03;10539397;28;20044;-69
2022/11/09 21:33:07;;;;;;;13.00;3.28;;;;;;;9.38;100.00;101265.56;10539363;28;20339;-74
2022/11/09 21:38:09;;;;;;;12.23;2.90;;;;;;;9.51;100.00;101273.81;10540712;28;20180;-71
2022/11/09 21:43:11;;;;;;;10.60;2.90;;;;;;;9.48;100.00;101279.16;10538085;28;20078;-71
2022/11/09 21:48:17;;;;;;;12.88;3.28;;;;;;;9.36;100.00;101285.59;10539755;28;20052;-73
2022/11/09 21:53:19;;;;;;;5.78;2.25;;;;;;;9.34;100.00;101283.03;10539564;28;20058;-69
2022/11/09 21:58:21;;;;;;;14.73;3.45;;;;;;;9.34;100.00;101283.03;10540003;28;20053;-68
2022/11/09 22:03:24;;;;;;;9.85;2.40;;;;;;;9.26;100.00;101291.06;10538800;28;20515;-66
2022/11/09 22:08:27;;;;;;;11.30;2.63;;;;;;;9.24;100.00;101292.84;10538929;28;20048;-68
2022/11/09 22:24:13;;;;;;;8.57;2.63;;;;;;;9.07;100.00;101308.13;10537894;28;20087;-69
2022/11/09 22:29:15;;;;;;;10.10;2.50;;;;;;;9.03;100.00;101315.16;10538131;28;20101;-68
2022/11/09 22:34:18;;;;;;;6.57;2.33;;;;;;;9.07;100.00;101323.75;10537683;28;20052;-68
2022/11/09 22:39:21;;;;;;;9.50;2.55;;;;;;;9.06;100.00;101329.88;10537532;28;20093;-72
2022/11/09 22:44:23;;;;;;;11.25;2.92;;;;;;;8.94;100.00;101337.13;10535108;28;20051;-67
2022/11/09 22:49:26;;;;;;;10.80;3.00;;;;;;;8.88;100.00;101345.94;10537373;28;20492;-69
2022/11/09 22:54:28;;;;;;;14.73;2.80;;;;;;;8.92;100.00;101348.44;10537042;28;20052;-69
2022/11/09 22:59:29;;;;;;;11.43;2.75;;;;;;;8.95;100.00;101349.22;10537073;28;20106;-70
2022/11/09 23:04:32;;;;;;;16.05;3.10;;;;;;;8.88;100.00;101358.97;10537110;28;20404;-71
2022/11/09 23:09:34;;;;;;;11.57;3.17;;;;;;;8.87;100.00;101369.41;10537174;28;20071;-68
2022/11/09 23:19:58;;;;;;;7.68;2.97;;;;;;;8.78;100.00;101383.53;10536337;28;20051;-66
2022/11/09 23:30:19;;;;;;;12.05;2.75;;;;;;;8.64;100.00;101391.69;10536236;28;20052;-68
2022/11/09 23:35:22;;;;;;;12.30;3.03;;;;;;;8.72;100.00;101415.75;10536307;28;20052;-66
2022/11/09 23:40:24;;;;;;;12.63;3.10;;;;;;;8.71;100.00;101406.25;10535778;28;20385;-68
2022/11/09 23:45:25;;;;;;;9.70;2.92;;;;;;;8.73;100.00;101416.63;10533786;28;20051;-75